WIII METAR and TAF | Updated Today

WIII METAR

Soekarno-Hatta International Airport

Observation time: 7 min. ago

WIII 051930Z 24005KT 8000 SCT020 26/23 Q1007 NOSIG

Need help? Read our tutorial on how to read METARs or read the parsed version below.

Soekarno-Hatta International Airport (WIII) METAR

  • Weather conditions on Sun, 05 Feb 2023 19:30:00 +0000 (7 min. ago):
  • Present conditions: Dry
  • Clouds: Scattered at 610 meters
  • Visibility: 8000 meters
  • Wind: 240 degrees at 5 knots
  • Temperature: 26 celsius
  • Dew point: 23 celsius
  • Pressure: 1007 millibars
  • Remarks: None


Useful to know...

WIII TAF

Soekarno-Hatta International Airport

TAF WIII 051700Z 0518/0624 23006KT 7000 SCT020 BECMG 0601/0603 33012KT
Observation time: 2:37 hr. ago
Need help? Read our tutorial on how to read TAFs or read the parsed version below.

Parsed version of TAF for Soekarno-Hatta International Airport (WIII)

  • From 05 February at 18:00 UTC, to day 06 of the month at 24:00 UTC
  • Clouds: Scattered at 610 meters
  • Visibility: 7000 meters
  • Wind: 230 degrees at 6
  • Expected to arise soon, from 06 February at 01:00 UTC, to day 06 of the month at 03:00 UTC
  • Wind: 330 degrees at 12